首页
METAR-TAF:

METAR-TAF

机场 :

艾拉島, 苏格兰

纬度: 55-40-55N, 经度: 006-15-24W, 海拔: 16米

当前天气观测

该预报发布于26分钟前的09:50 UTC
风速5节,风向西转西南,在西南西转西北之间变化
温度 13°C
湿度 72%
气压 1014 hPa
能见度10公里或以上
少量云层高于3000英尺

METAR: EGPI 190950Z 25005KT 230V290 9999 FEW030 13/08 Q1014

时间: 11:16 (10:16 UTC)

预报

该预报发布于2小时和21分钟前的07:55 UTC
预报有效从19日的 09点(UTC)到 19日的 18点(UTC)
风速4节,风向多变
能见度10公里或以上
少量云层高于3500英尺
几率 40%
从 19日的 14点(UTC)到 19日的 18点(UTC)
风速10节,风向

TAF: EGPI 190755Z 1909/1918 VRB04KT 9999 FEW035 PROB40 1914/1918 17010KT

超过4000个机场的气象观测和天气预报(METAR&TAF报告)。

可查询的气象台以黄色和红色小点在地图上表示。

将鼠标移到小点上方,可查看气象台名称。

然后点击查看天气观测和预报。

如需切换地图:点击带黑十字的绿色按钮放大地图;点击带横线的绿色按钮缩小地图;或者点击绿色箭头查看邻近地区的地图。


METAR-TAF: